Time;durP1;ratioP1;P1;durP2;ratioP2;P2;SDS_P1;SDS_P2;PMS_P1;PMS_P2;Temp;Humidity;BMP_temperature;BMP_pressure;BME280_temperature;BME280_humidity;BME280_pressure;Samples;Min_cycle;Max_cycle;Signal;HPM_P1;HPM_P2
2022/03/19 00:00:55;;;;;;;31.15;14.70;;;12.60;69.60;;;;;;5084716;27;20088;-60
2022/03/19 00:03:20;;;;;;;20.52;14.23;;;12.60;69.40;;;;;;5101233;27;20027;-60
2022/03/19 00:05:46;;;;;;;28.75;15.60;;;12.50;69.50;;;;;;5125103;27;20034;-60
2022/03/19 00:08:12;;;;;;;29.05;16.60;;;12.50;69.50;;;;;;5101602;27;20030;-60
2022/03/19 00:10:37;;;;;;;27.20;15.43;;;12.50;69.70;;;;;;5105649;27;20042;-60
2022/03/19 00:13:03;;;;;;;23.35;14.52;;;12.50;70.50;;;;;;5121543;27;20027;-60
2022/03/19 00:15:29;;;;;;;23.48;15.52;;;12.50;70.00;;;;;;5071749;27;20076;-60
2022/03/19 00:17:57;;;;;;;17.80;14.10;;;12.50;69.90;;;;;;5105969;27;20091;-60
2022/03/19 00:20:23;;;;;;;23.50;14.77;;;12.50;69.40;;;;;;5101673;27;20482;-60
2022/03/19 00:22:48;;;;;;;24.52;15.60;;;12.50;69.50;;;;;;5097481;27;20043;-60
2022/03/19 00:25:14;;;;;;;24.95;15.02;;;12.40;69.40;;;;;;5122174;27;20043;-60
2022/03/19 00:27:42;;;;;;;25.75;15.18;;;12.40;69.80;;;;;;5105414;27;20035;-60
2022/03/19 00:30:08;;;;;;;20.10;14.52;;;12.40;70.00;;;;;;5088624;27;20050;-60
2022/03/19 00:32:34;;;;;;;21.25;14.98;;;12.40;69.80;;;;;;5105110;27;20113;-60
2022/03/19 00:35:00;;;;;;;26.02;15.80;;;12.40;70.00;;;;;;5124517;27;20104;-60
2022/03/19 00:37:25;;;;;;;22.30;14.95;;;12.40;69.80;;;;;;5105699;27;20480;-60
2022/03/19 00:39:51;;;;;;;22.73;17.67;;;12.30;69.60;;;;;;5120841;27;20115;-60
2022/03/19 00:42:16;;;;;;;27.77;17.23;;;12.40;69.60;;;;;;5124290;27;20262;-60
2022/03/19 00:44:43;;;;;;;18.55;15.68;;;12.30;69.30;;;;;;5105997;27;20042;-60
2022/03/19 00:47:08;;;;;;;24.83;16.15;;;12.30;69.70;;;;;;5123960;27;20605;-60
2022/03/19 00:49:34;;;;;;;21.80;15.60;;;12.20;69.90;;;;;;5124998;27;20122;-60
2022/03/19 00:51:59;;;;;;;22.38;15.82;;;12.20;69.90;;;;;;5103024;27;20031;-60
2022/03/19 00:54:25;;;;;;;22.23;14.15;;;12.20;69.90;;;;;;5122845;27;20042;-60
2022/03/19 00:56:50;;;;;;;20.65;15.27;;;12.20;69.80;;;;;;5090090;27;20042;-60
2022/03/19 00:59:16;;;;;;;23.50;15.70;;;12.20;69.80;;;;;;5125083;27;20391;-60
2022/03/19 01:01:41;;;;;;;22.45;15.88;;;12.20;70.00;;;;;;5124706;27;20020;-60
2022/03/19 01:04:07;;;;;;;20.38;15.32;;;12.20;70.20;;;;;;5104756;27;20027;-60
2022/03/19 01:06:32;;;;;;;20.40;15.32;;;12.20;70.10;;;;;;5086886;27;20470;-60
2022/03/19 01:08:59;;;;;;;19.35;14.80;;;12.20;69.90;;;;;;5123526;27;20035;-60
2022/03/19 01:11:24;;;;;;;20.33;15.52;;;12.10;70.10;;;;;;5071775;27;20126;-60
2022/03/19 01:13:50;;;;;;;27.60;18.50;;;12.10;70.10;;;;;;5088490;27;20091;-60
2022/03/19 01:16:18;;;;;;;29.02;18.27;;;12.10;69.70;;;;;;5104680;27;20039;-60
2022/03/19 01:18:47;;;;;;;21.50;16.73;;;12.00;69.80;;;;;;5122178;27;20390;-60
2022/03/19 01:21:14;;;;;;;24.50;16.02;;;12.00;69.90;;;;;;5072072;27;20065;-59
2022/03/19 01:23:39;;;;;;;20.20;15.05;;;12.00;70.10;;;;;;5124689;27;20072;-61
2022/03/19 01:26:05;;;;;;;19.30;15.02;;;12.00;70.10;;;;;;5123977;27;20051;-60
2022/03/19 01:28:31;;;;;;;23.17;16.58;;;12.00;70.20;;;;;;5103583;27;20085;-60
2022/03/19 01:30:56;;;;;;;19.40;15.52;;;12.00;70.20;;;;;;5084274;28;20142;-60
2022/03/19 01:33:22;;;;;;;25.85;15.68;;;12.00;70.30;;;;;;5101969;28;20043;-60
2022/03/19 01:35:47;;;;;;;18.00;15.15;;;11.90;70.20;;;;;;5055780;28;20127;-60
2022/03/19 01:38:13;;;;;;;21.40;15.27;;;11.90;70.10;;;;;;5090631;28;20111;-59
2022/03/19 01:40:38;;;;;;;18.88;14.98;;;11.90;70.00;;;;;;5100891;28;20333;-60
2022/03/19 01:43:04;;;;;;;19.83;14.57;;;11.90;70.00;;;;;;5087332;28;20039;-60
2022/03/19 01:45:29;;;;;;;18.45;14.23;;;11.90;69.90;;;;;;5093759;28;20040;-60
2022/03/19 01:47:55;;;;;;;21.13;13.95;;;11.90;70.00;;;;;;5037400;28;20107;-60
2022/03/19 01:50:21;;;;;;;17.75;14.20;;;11.90;69.90;;;;;;5101789;28;20015;-60
2022/03/19 01:52:47;;;;;;;19.75;14.13;;;11.80;69.90;;;;;;5103733;27;20036;-59
2022/03/19 01:55:13;;;;;;;18.75;15.20;;;11.80;70.20;;;;;;5101222;28;20035;-60
2022/03/19 01:57:41;;;;;;;19.45;14.23;;;11.80;70.30;;;;;;5101391;28;20032;-60
2022/03/19 02:00:09;;;;;;;17.20;14.30;;;11.80;70.20;;;;;;5085331;28;20322;-60
2022/03/19 02:02:34;;;;;;;16.25;14.15;;;11.80;69.90;;;;;;5084847;28;20032;-60
2022/03/19 02:05:01;;;;;;;18.40;14.55;;;11.80;69.70;;;;;;5086178;28;20081;-60
2022/03/19 02:07:27;;;;;;;17.92;14.23;;;11.80;69.90;;;;;;5081600;28;20031;-60
2022/03/19 02:09:52;;;;;;;19.48;14.73;;;11.80;70.00;;;;;;5085789;28;20548;-60
2022/03/19 02:12:18;;;;;;;16.13;14.05;;;11.70;70.30;;;;;;5083257;28;20398;-60
2022/03/19 02:14:44;;;;;;;19.25;15.25;;;11.80;70.70;;;;;;5082810;28;20465;-61
2022/03/19 02:17:10;;;;;;;17.27;14.52;;;11.70;70.90;;;;;;5101369;28;20031;-60
2022/03/19 02:19:52;;;;;;;19.80;15.27;;;11.70;70.90;;;;;;5094183;28;20027;-60
2022/03/19 02:22:18;;;;;;;17.92;14.27;;;11.70;70.80;;;;;;5082634;28;20036;-59
2022/03/19 02:27:28;;;;;;;17.85;14.45;;;11.70;70.90;;;;;;5100826;28;20501;-60
2022/03/19 02:29:56;;;;;;;20.60;14.88;;;11.70;71.00;;;;;;5083909;28;20150;-59
2022/03/19 02:32:21;;;;;;;18.17;15.40;;;11.70;70.80;;;;;;5102844;27;20082;-60
2022/03/19 02:34:47;;;;;;;19.23;15.57;;;11.60;70.80;;;;;;5094738;27;20126;-60
2022/03/19 02:37:12;;;;;;;18.40;14.70;;;11.70;70.80;;;;;;5102376;27;20051;-60
2022/03/19 02:39:38;;;;;;;19.83;15.05;;;11.60;70.70;;;;;;5081120;28;20024;-60
2022/03/19 02:42:05;;;;;;;22.77;15.55;;;11.60;71.00;;;;;;5103368;27;20023;-60
2022/03/19 02:44:31;;;;;;;20.95;16.55;;;11.60;70.50;;;;;;5083191;28;20110;-60
2022/03/19 02:46:59;;;;;;;19.23;15.75;;;11.60;70.30;;;;;;5082469;28;20110;-60
2022/03/19 02:49:24;;;;;;;19.02;15.10;;;11.60;70.50;;;;;;5076145;28;20035;-60
2022/03/19 02:51:51;;;;;;;19.95;15.95;;;11.60;70.70;;;;;;5098238;27;20475;-59
2022/03/19 02:54:18;;;;;;;19.73;16.17;;;11.50;70.70;;;;;;5101361;27;20116;-60
2022/03/19 02:56:43;;;;;;;19.25;15.63;;;11.50;70.70;;;;;;5101956;27;20035;-60
2022/03/19 02:59:13;;;;;;;18.70;15.60;;;11.50;70.70;;;;;;5092447;27;20050;-60
2022/03/19 03:01:40;;;;;;;20.73;15.63;;;11.50;70.60;;;;;;5068323;27;20118;-60
2022/03/19 03:04:05;;;;;;;18.40;15.35;;;11.50;70.80;;;;;;5082468;27;20027;-60
2022/03/19 03:06:36;;;;;;;18.60;15.20;;;11.50;70.80;;;;;;5101773;27;20024;-59
2022/03/19 03:09:02;;;;;;;17.88;15.75;;;11.50;71.00;;;;;;5065287;27;20463;-60
2022/03/19 03:11:27;;;;;;;21.33;16.80;;;11.50;70.30;;;;;;5103843;27;20035;-60
2022/03/19 03:13:53;;;;;;;21.38;16.85;;;11.40;70.30;;;;;;5104346;27;20039;-60
2022/03/19 03:16:18;;;;;;;23.50;17.73;;;11.40;70.30;;;;;;5083321;27;20115;-60
2022/03/19 03:18:44;;;;;;;22.63;18.08;;;11.40;70.40;;;;;;5081825;28;20508;-60
2022/03/19 03:21:09;;;;;;;22.83;17.58;;;11.40;70.60;;;;;;5083177;28;20422;-60
2022/03/19 03:23:35;;;;;;;24.95;17.90;;;11.40;70.70;;;;;;5070221;27;20027;-59
2022/03/19 03:26:00;;;;;;;21.85;16.38;;;11.40;70.80;;;;;;5102323;27;20027;-60
2022/03/19 03:28:27;;;;;;;25.75;18.35;;;11.40;70.80;;;;;;5096535;27;20051;-60
2022/03/19 03:30:53;;;;;;;22.20;17.05;;;11.30;70.60;;;;;;5110814;27;20039;-60
2022/03/19 03:33:18;;;;;;;20.17;17.33;;;11.30;70.70;;;;;;5097767;28;20164;-60
2022/03/19 03:35:44;;;;;;;23.63;17.38;;;11.30;70.70;;;;;;5077604;28;20363;-60
2022/03/19 03:38:09;;;;;;;22.33;17.33;;;11.30;70.70;;;;;;5120386;27;20043;-60
2022/03/19 03:40:35;;;;;;;23.42;18.02;;;11.30;70.80;;;;;;5091498;28;20046;-60
2022/03/19 03:43:00;;;;;;;22.85;16.83;;;11.30;70.70;;;;;;5107333;28;20034;-60
2022/03/19 03:45:29;;;;;;;22.48;17.60;;;11.30;70.40;;;;;;5106316;28;20036;-60
2022/03/19 03:47:55;;;;;;;22.23;17.40;;;11.30;70.40;;;;;;5072750;28;20039;-60
2022/03/19 03:50:20;;;;;;;21.40;16.63;;;11.20;70.70;;;;;;5091752;28;20019;-60
2022/03/19 03:52:46;;;;;;;22.92;16.83;;;11.20;70.80;;;;;;5101470;28;20529;-60
2022/03/19 03:55:12;;;;;;;21.52;16.08;;;11.20;70.60;;;;;;5101005;28;20172;-60
2022/03/19 03:57:37;;;;;;;19.38;17.17;;;11.20;70.50;;;;;;5080338;28;20035;-60
2022/03/19 04:00:03;;;;;;;21.02;16.30;;;11.10;70.60;;;;;;5107211;28;20044;-60
2022/03/19 04:02:29;;;;;;;21.55;16.55;;;11.10;70.70;;;;;;5099710;28;20435;-60
2022/03/19 04:04:54;;;;;;;23.20;16.80;;;11.10;70.60;;;;;;5108028;28;20069;-60
2022/03/19 04:07:21;;;;;;;22.30;16.88;;;11.10;70.90;;;;;;5105884;28;20070;-60
2022/03/19 04:09:47;;;;;;;21.02;16.70;;;11.10;70.80;;;;;;5112673;28;20226;-60
2022/03/19 04:12:12;;;;;;;21.50;16.63;;;11.10;70.70;;;;;;5120227;28;20473;-60
2022/03/19 04:14:38;;;;;;;20.00;16.50;;;11.10;70.70;;;;;;5116734;28;20513;-60
2022/03/19 04:17:04;;;;;;;21.92;17.10;;;11.00;70.50;;;;;;5119754;28;20023;-60
2022/03/19 04:19:30;;;;;;;19.92;17.20;;;11.10;70.60;;;;;;5120088;28;20180;-60
2022/03/19 04:21:55;;;;;;;22.45;16.20;;;11.00;70.70;;;;;;5100917;28;20444;-60
2022/03/19 04:24:21;;;;;;;19.42;16.98;;;11.00;70.70;;;;;;5096579;28;20101;-60
2022/03/19 04:26:47;;;;;;;21.23;17.25;;;11.00;70.70;;;;;;5115270;28;20058;-60
2022/03/19 04:29:12;;;;;;;22.55;17.85;;;11.00;70.70;;;;;;5108794;28;20028;-60
2022/03/19 04:31:38;;;;;;;21.35;16.60;;;11.00;70.70;;;;;;5082204;28;20039;-60
2022/03/19 04:34:03;;;;;;;21.75;17.17;;;11.00;70.80;;;;;;5110072;28;20215;-60
2022/03/19 04:36:38;;;;;;;19.23;17.10;;;11.00;70.70;;;;;;5099619;28;20471;-60
2022/03/19 04:39:04;;;;;;;20.13;17.80;;;10.90;70.70;;;;;;5113554;28;20058;-60
2022/03/19 04:41:30;;;;;;;18.48;16.42;;;10.90;70.70;;;;;;5089162;27;20029;-60
2022/03/19 04:43:55;;;;;;;19.92;16.42;;;10.90;70.70;;;;;;5121598;27;20023;-59
2022/03/19 04:46:21;;;;;;;21.60;17.02;;;10.90;70.70;;;;;;5086727;27;20415;-60
2022/03/19 04:48:47;;;;;;;20.77;16.63;;;10.90;70.70;;;;;;5122896;27;20045;-60
2022/03/19 04:51:17;;;;;;;18.95;16.58;;;10.90;70.70;;;;;;5098356;27;20023;-60
2022/03/19 04:53:43;;;;;;;21.35;16.88;;;10.90;71.30;;;;;;5073736;27;20114;-59
2022/03/19 04:56:08;;;;;;;19.02;16.95;;;10.80;70.70;;;;;;5112341;27;20202;-60
2022/03/19 04:58:34;;;;;;;20.30;16.35;;;10.80;70.80;;;;;;5103967;27;20043;-60
2022/03/19 05:00:59;;;;;;;19.23;17.08;;;10.80;70.80;;;;;;5069434;27;20088;-60
2022/03/19 05:03:25;;;;;;;19.17;16.38;;;10.80;70.90;;;;;;5094341;28;20036;-60
2022/03/19 05:05:50;;;;;;;20.70;16.27;;;10.80;70.70;;;;;;5100018;27;20019;-60
2022/03/19 05:08:17;;;;;;;18.42;16.23;;;10.80;70.70;;;;;;5122495;27;20035;-60
2022/03/19 05:13:27;;;;;;;20.60;16.65;;;10.70;70.50;;;;;;5110889;27;20072;-60
2022/03/19 05:15:53;;;;;;;19.27;16.48;;;10.80;70.80;;;;;;5089612;27;20031;-60
2022/03/19 05:18:19;;;;;;;18.90;16.73;;;10.70;70.80;;;;;;5124353;27;20443;-60
2022/03/19 05:20:45;;;;;;;19.58;17.15;;;10.70;70.90;;;;;;5119589;27;20030;-60
2022/03/19 05:23:10;;;;;;;20.58;17.00;;;10.70;70.90;;;;;;5104403;27;20023;-60
2022/03/19 05:25:36;;;;;;;20.83;17.35;;;10.70;70.80;;;;;;5114936;27;20035;-60
2022/03/19 05:28:02;;;;;;;23.23;17.23;;;10.70;70.90;;;;;;5070926;28;20505;-60
2022/03/19 05:30:27;;;;;;;20.20;17.55;;;10.70;70.90;;;;;;5119575;27;20082;-60
2022/03/19 05:32:53;;;;;;;25.02;17.65;;;10.60;71.00;;;;;;5069464;28;20068;-60
2022/03/19 05:35:18;;;;;;;25.35;17.30;;;10.60;71.10;;;;;;5117604;27;20015;-59
2022/03/19 05:37:45;;;;;;;29.48;19.73;;;10.60;70.80;;;;;;5100908;27;20042;-60
2022/03/19 05:40:11;;;;;;;25.42;18.75;;;10.60;70.60;;;;;;5084512;27;20038;-60
2022/03/19 05:42:37;;;;;;;29.95;18.75;;;10.60;70.70;;;;;;5102654;27;20132;-60
2022/03/19 05:45:03;;;;;;;29.35;19.20;;;10.60;71.10;;;;;;5104785;27;20016;-59
2022/03/19 05:47:28;;;;;;;24.38;19.13;;;10.60;71.20;;;;;;5103587;27;20054;-59
2022/03/19 05:49:54;;;;;;;25.13;19.05;;;10.50;71.00;;;;;;5105307;27;20493;-60
2022/03/19 05:52:19;;;;;;;29.95;19.17;;;10.50;70.90;;;;;;5120286;27;20478;-59
2022/03/19 05:54:45;;;;;;;21.20;18.38;;;10.50;70.90;;;;;;5121805;27;20038;-60
2022/03/19 05:57:10;;;;;;;24.02;18.13;;;10.50;70.90;;;;;;5103471;27;20382;-60
2022/03/19 05:59:36;;;;;;;22.58;19.02;;;10.50;71.20;;;;;;5104570;27;20103;-60
2022/03/19 06:02:02;;;;;;;24.60;19.30;;;10.50;71.20;;;;;;5085708;27;20031;-60
2022/03/19 06:04:28;;;;;;;26.08;20.85;;;10.50;71.10;;;;;;5122788;27;20470;-60
2022/03/19 06:06:53;;;;;;;22.85;19.75;;;10.50;71.80;;;;;;5122134;27;20023;-60
2022/03/19 06:09:19;;;;;;;28.38;20.27;;;10.50;71.30;;;;;;5103983;27;20115;-61
2022/03/19 06:11:45;;;;;;;22.10;19.50;;;10.50;71.40;;;;;;5122399;27;20038;-60
2022/03/19 06:14:11;;;;;;;23.95;19.63;;;10.40;71.30;;;;;;5120605;27;20111;-59
2022/03/19 06:16:37;;;;;;;24.92;19.33;;;10.40;71.40;;;;;;5099334;27;20501;-60
2022/03/19 06:19:02;;;;;;;27.20;19.90;;;10.40;71.40;;;;;;5120881;27;20422;-60
2022/03/19 06:21:28;;;;;;;27.00;20.17;;;10.40;71.40;;;;;;5085293;27;20501;-60
2022/03/19 06:23:53;;;;;;;24.13;19.98;;;10.40;71.30;;;;;;5103407;27;20146;-60
2022/03/19 06:26:20;;;;;;;38.95;20.70;;;10.40;71.40;;;;;;5118508;27;20489;-60
2022/03/19 06:28:45;;;;;;;52.42;22.20;;;10.40;71.30;;;;;;5120437;27;20019;-60
2022/03/19 06:31:11;;;;;;;54.63;22.88;;;10.40;71.40;;;;;;5086050;28;20051;-60
2022/03/19 06:33:40;;;;;;;56.47;22.60;;;10.40;71.40;;;;;;5105471;27;20106;-60
2022/03/19 06:38:50;;;;;;;140.52;27.75;;;10.40;71.40;;;;;;5068694;28;20172;-60
2022/03/19 06:41:15;;;;;;;93.18;27.15;;;10.30;71.50;;;;;;5102240;27;20349;-60
2022/03/19 06:43:43;;;;;;;118.22;25.58;;;10.40;71.60;;;;;;5098911;27;20036;-60
2022/03/19 06:46:08;;;;;;;122.43;26.40;;;10.30;71.70;;;;;;5079495;27;20027;-60
2022/03/19 06:48:34;;;;;;;117.40;27.90;;;10.30;71.60;;;;;;5102516;28;20076;-60
2022/03/19 06:50:59;;;;;;;127.10;28.90;;;10.30;71.70;;;;;;5102975;28;20379;-60
2022/03/19 06:53:25;;;;;;;106.45;26.58;;;10.40;71.70;;;;;;5099900;28;20106;-60
2022/03/19 06:55:51;;;;;;;98.22;26.17;;;10.40;71.70;;;;;;5101535;28;20023;-59
2022/03/19 06:58:16;;;;;;;98.70;26.98;;;10.30;71.70;;;;;;5083217;27;20043;-60
2022/03/19 07:00:42;;;;;;;107.95;26.65;;;10.20;71.60;;;;;;5098997;27;20060;-60
2022/03/19 07:03:07;;;;;;;81.50;25.70;;;10.30;71.80;;;;;;5104067;27;20023;-60
2022/03/19 07:05:33;;;;;;;104.38;27.25;;;10.30;71.70;;;;;;5083997;28;20372;-60
2022/03/19 07:07:59;;;;;;;101.63;26.92;;;10.30;71.70;;;;;;5081698;28;20387;-60
2022/03/19 07:10:25;;;;;;;83.15;25.60;;;10.30;71.80;;;;;;5101752;27;20463;-60
2022/03/19 07:12:55;;;;;;;91.75;25.95;;;10.30;71.80;;;;;;5098560;28;20034;-60
2022/03/19 07:15:24;;;;;;;97.95;25.95;;;10.30;71.80;;;;;;5104382;27;20099;-59
2022/03/19 07:17:50;;;;;;;77.15;24.15;;;10.30;72.00;;;;;;5075930;28;20179;-60
2022/03/19 07:20:16;;;;;;;72.45;25.00;;;10.30;71.90;;;;;;5071309;28;20012;-60
2022/03/19 07:22:54;;;;;;;76.90;25.20;;;10.30;71.90;;;;;;5081303;28;20553;-60
2022/03/19 07:25:21;;;;;;;61.38;24.60;;;10.30;72.10;;;;;;5098568;28;20019;-60
2022/03/19 07:27:48;;;;;;;57.72;23.75;;;10.30;72.10;;;;;;5059825;28;20147;-60
2022/03/19 07:30:14;;;;;;;78.97;26.50;;;10.30;72.10;;;;;;5088632;27;20043;-60
2022/03/19 07:32:39;;;;;;;67.53;26.92;;;10.30;72.10;;;;;;5100213;27;20080;-60
2022/03/19 07:35:06;;;;;;;66.40;26.73;;;10.20;72.00;;;;;;5101645;28;20046;-60
2022/03/19 07:37:32;;;;;;;61.20;25.92;;;10.10;72.30;;;;;;5099944;28;20572;-60
2022/03/19 07:39:57;;;;;;;61.90;26.25;;;10.20;72.40;;;;;;5102233;27;20061;-60
2022/03/19 07:42:23;;;;;;;64.82;25.90;;;10.20;72.40;;;;;;5084906;28;20019;-60
2022/03/19 07:44:48;;;;;;;50.72;26.77;;;10.30;72.40;;;;;;5101767;28;20023;-60
2022/03/19 07:47:14;;;;;;;46.17;25.70;;;10.30;72.40;;;;;;5101006;28;20331;-60
2022/03/19 07:49:40;;;;;;;49.22;26.13;;;10.20;72.40;;;;;;5102263;27;20518;-60
2022/03/19 07:52:06;;;;;;;51.08;25.50;;;10.20;72.50;;;;;;5101062;28;20126;-60
2022/03/19 07:54:32;;;;;;;60.00;24.98;;;10.20;72.70;;;;;;5117169;27;20482;-60
2022/03/19 07:56:58;;;;;;;54.08;24.80;;;10.20;72.70;;;;;;5121654;27;20019;-60
2022/03/19 07:59:23;;;;;;;70.68;25.95;;;10.20;72.80;;;;;;5097625;28;20034;-60
2022/03/19 08:01:49;;;;;;;67.80;27.67;;;10.30;72.80;;;;;;5117737;28;20031;-60
2022/03/19 08:04:15;;;;;;;53.05;26.35;;;10.30;72.90;;;;;;5100549;28;20023;-60
2022/03/19 08:06:41;;;;;;;53.50;25.80;;;10.20;72.80;;;;;;5115164;27;20019;-60
2022/03/19 08:09:07;;;;;;;54.78;26.17;;;10.20;72.70;;;;;;5087916;28;20049;-60
2022/03/19 08:11:33;;;;;;;49.83;26.10;;;10.20;72.70;;;;;;5115007;27;20268;-60
2022/03/19 08:13:59;;;;;;;44.95;25.88;;;10.30;72.90;;;;;;5063242;27;20073;-60
2022/03/19 08:16:24;;;;;;;55.97;27.05;;;10.30;72.90;;;;;;5117368;27;20045;-60
2022/03/19 08:18:50;;;;;;;50.95;26.05;;;10.30;72.80;;;;;;5101070;27;20031;-60
2022/03/19 08:21:15;;;;;;;45.83;26.50;;;10.20;72.90;;;;;;5087279;27;20377;-60
2022/03/19 08:23:41;;;;;;;45.10;25.33;;;10.20;72.80;;;;;;5104206;27;20096;-60
2022/03/19 08:26:07;;;;;;;43.22;26.52;;;10.30;73.00;;;;;;5104917;27;20467;-58
2022/03/19 08:28:32;;;;;;;69.03;27.80;;;10.20;72.90;;;;;;5104146;27;20030;-60
2022/03/19 08:30:58;;;;;;;61.70;26.25;;;10.20;73.10;;;;;;5119123;27;20083;-60
2022/03/19 08:33:25;;;;;;;53.40;27.00;;;10.30;73.10;;;;;;5102957;27;20516;-59
2022/03/19 08:35:50;;;;;;;46.33;26.00;;;10.30;73.10;;;;;;5116482;27;20023;-60
2022/03/19 08:40:59;;;;;;;46.60;26.48;;;10.30;73.10;;;;;;5085376;27;20411;-60
2022/03/19 08:43:25;;;;;;;60.53;28.02;;;10.30;73.10;;;;;;5076784;28;20024;-60
2022/03/19 08:45:51;;;;;;;43.67;27.10;;;10.30;73.50;;;;;;5104309;27;20035;-60
2022/03/19 08:48:18;;;;;;;60.13;26.33;;;10.30;73.60;;;;;;5095307;27;20110;-60
2022/03/19 08:50:45;;;;;;;57.22;27.88;;;10.30;73.30;;;;;;5082669;27;20057;-60
2022/03/19 08:53:11;;;;;;;43.08;27.15;;;10.30;73.80;;;;;;5109820;27;20043;-60
2022/03/19 08:55:36;;;;;;;49.47;27.23;;;10.30;73.20;;;;;;5104509;27;20035;-60
2022/03/19 08:58:03;;;;;;;48.08;26.67;;;10.30;73.20;;;;;;5078606;27;20522;-60
2022/03/19 09:00:28;;;;;;;45.40;26.83;;;10.50;73.40;;;;;;5082521;27;20084;-60
2022/03/19 09:02:55;;;;;;;75.43;29.92;;;10.40;73.30;;;;;;5080638;28;20028;-60
2022/03/19 09:05:21;;;;;;;78.97;28.45;;;10.40;73.20;;;;;;5099488;27;20019;-61
2022/03/19 09:07:47;;;;;;;62.38;28.10;;;10.40;73.40;;;;;;5104373;27;20032;-60
2022/03/19 09:10:12;;;;;;;52.65;27.27;;;10.50;73.50;;;;;;5107244;27;20120;-59
2022/03/19 09:12:38;;;;;;;66.70;28.17;;;10.40;73.40;;;;;;5101543;27;20023;-59
2022/03/19 09:15:04;;;;;;;49.95;28.65;;;10.40;73.50;;;;;;5080103;28;20066;-60
2022/03/19 09:17:30;;;;;;;61.65;29.52;;;10.40;73.70;;;;;;5087516;27;20032;-60
2022/03/19 09:19:55;;;;;;;60.05;29.33;;;10.50;73.60;;;;;;5111937;27;20976;-61
2022/03/19 09:22:21;;;;;;;56.97;28.55;;;10.50;73.70;;;;;;5097252;27;20133;-60
2022/03/19 09:24:47;;;;;;;48.15;27.98;;;10.50;73.70;;;;;;5084689;28;20024;-60
2022/03/19 09:27:12;;;;;;;55.25;28.67;;;10.50;73.40;;;;;;5099622;27;21024;-60
2022/03/19 09:29:38;;;;;;;50.88;28.55;;;10.60;73.50;;;;;;5102292;27;20134;-59
2022/03/19 09:32:04;;;;;;;61.75;27.67;;;10.60;73.50;;;;;;5111932;27;20043;-60
2022/03/19 09:34:30;;;;;;;68.13;28.17;;;10.60;73.60;;;;;;5111429;27;20123;-61
2022/03/19 09:36:55;;;;;;;81.90;32.05;;;10.60;73.70;;;;;;5074924;28;20023;-60
2022/03/19 09:39:21;;;;;;;76.13;31.40;;;10.60;74.00;;;;;;5111933;27;20058;-60
2022/03/19 09:41:47;;;;;;;133.95;35.70;;;10.70;74.00;;;;;;5090289;27;20039;-60
2022/03/19 09:44:13;;;;;;;107.90;33.30;;;10.70;74.30;;;;;;5082608;27;20031;-59
2022/03/19 09:46:38;;;;;;;98.88;31.17;;;10.70;74.40;;;;;;5069375;28;20044;-60
2022/03/19 09:49:04;;;;;;;100.70;33.03;;;10.80;74.40;;;;;;5074903;27;20447;-60
2022/03/19 09:51:33;;;;;;;102.72;34.00;;;10.80;74.60;;;;;;5082439;27;20820;-60
2022/03/19 09:53:59;;;;;;;97.97;33.58;;;10.90;74.80;;;;;;5071384;28;20456;-60
2022/03/19 09:56:25;;;;;;;89.93;34.10;;;10.80;74.60;;;;;;5106004;27;20035;-60
2022/03/19 09:58:52;;;;;;;113.22;34.80;;;10.90;75.00;;;;;;5106078;27;20458;-60
2022/03/19 10:01:21;;;;;;;104.32;33.25;;;10.90;75.00;;;;;;5100502;27;20109;-60
2022/03/19 10:03:47;;;;;;;134.48;36.35;;;10.90;75.00;;;;;;5103299;27;20070;-60
2022/03/19 10:08:59;;;;;;;;;;;11.00;75.20;;;;;;5098298;27;20045;-60
2022/03/19 10:11:28;;;;;;;159.45;37.10;;;11.00;75.30;;;;;;5112871;27;20491;-60
2022/03/19 10:13:54;;;;;;;157.93;40.55;;;11.00;75.30;;;;;;5084965;27;20123;-60
2022/03/19 10:16:28;;;;;;;135.95;37.00;;;11.10;75.60;;;;;;5107045;27;20118;-61
2022/03/19 10:19:00;;;;;;;154.13;39.30;;;11.10;75.50;;;;;;5052362;28;20702;-60
2022/03/19 10:21:27;;;;;;;149.60;38.65;;;11.20;75.70;;;;;;5068401;28;20502;-60
2022/03/19 10:23:54;;;;;;;155.77;40.10;;;11.30;75.70;;;;;;5090723;27;20023;-60
2022/03/19 10:26:35;;;;;;;150.45;40.08;;;11.30;75.70;;;;;;5084555;27;20088;-60
2022/03/19 10:29:01;;;;;;;204.65;41.63;;;11.30;75.70;;;;;;5078698;27;20152;-60
2022/03/19 10:31:31;;;;;;;182.25;40.03;;;11.30;75.70;;;;;;5097984;27;20655;-60
2022/03/19 10:33:56;;;;;;;216.85;44.03;;;11.30;75.90;;;;;;5108174;27;20039;-60
2022/03/19 10:36:28;;;;;;;226.95;43.78;;;11.40;76.10;;;;;;5107619;27;20043;-60
2022/03/19 10:38:54;;;;;;;205.93;44.10;;;11.40;76.10;;;;;;5080911;28;20123;-60
2022/03/19 10:41:19;;;;;;;213.55;43.90;;;11.50;76.00;;;;;;5097185;27;20023;-60
2022/03/19 10:43:48;;;;;;;329.55;55.72;;;11.50;75.90;;;;;;5092325;27;20031;-60
2022/03/19 10:46:16;;;;;;;294.13;52.45;;;11.50;76.00;;;;;;5111838;27;20560;-60
2022/03/19 10:48:42;;;;;;;317.20;52.25;;;11.60;76.10;;;;;;5114348;27;20050;-60
2022/03/19 10:51:08;;;;;;;337.30;56.22;;;11.60;76.00;;;;;;5115682;27;20409;-61
2022/03/19 10:53:34;;;;;;;258.95;47.58;;;11.80;76.00;;;;;;5095939;27;20114;-60
2022/03/19 10:56:01;;;;;;;329.33;55.67;;;11.70;75.90;;;;;;5095594;27;20043;-60
2022/03/19 10:58:27;;;;;;;311.60;56.72;;;11.80;75.90;;;;;;5114652;27;20045;-60
2022/03/19 11:00:52;;;;;;;301.10;52.78;;;11.80;76.10;;;;;;5088977;28;20194;-60
2022/03/19 11:03:19;;;;;;;279.20;51.72;;;11.90;76.00;;;;;;5077899;27;20043;-60
2022/03/19 11:05:45;;;;;;;342.38;55.10;;;11.90;75.90;;;;;;5088089;27;20023;-60
2022/03/19 11:08:11;;;;;;;393.33;57.08;;;12.00;75.80;;;;;;5098477;27;20525;-60
2022/03/19 11:10:36;;;;;;;343.63;54.50;;;12.00;75.80;;;;;;5086815;28;20434;-60
2022/03/19 11:13:03;;;;;;;285.38;51.15;;;12.00;75.80;;;;;;5079679;28;20031;-60
2022/03/19 11:15:32;;;;;;;306.50;52.20;;;12.00;75.80;;;;;;5119722;27;20027;-60
2022/03/19 11:17:57;;;;;;;285.02;52.47;;;12.10;75.70;;;;;;5066894;27;20091;-60
2022/03/19 11:20:23;;;;;;;332.67;55.70;;;12.10;75.60;;;;;;5095573;27;20047;-61
2022/03/19 11:22:50;;;;;;;364.63;54.15;;;12.10;75.60;;;;;;5110555;27;20147;-60
2022/03/19 11:25:30;;;;;;;300.27;51.10;;;12.20;75.60;;;;;;5094232;27;20036;-60
2022/03/19 11:28:06;;;;;;;296.52;50.88;;;12.20;75.40;;;;;;5110828;27;20627;-60
2022/03/19 11:30:34;;;;;;;283.58;51.72;;;12.20;75.10;;;;;;5080617;27;20039;-60
2022/03/19 11:33:17;;;;;;;303.38;51.35;;;12.30;75.00;;;;;;5114106;27;20039;-60
2022/03/19 11:35:55;;;;;;;272.58;50.83;;;12.40;75.10;;;;;;5090486;28;20019;-60
2022/03/19 11:38:21;;;;;;;294.73;51.20;;;12.50;74.90;;;;;;5109413;27;20034;-61
2022/03/19 11:40:53;;;;;;;300.10;51.83;;;12.40;74.50;;;;;;5078253;28;20080;-60
2022/03/19 11:43:25;;;;;;;299.10;53.10;;;12.50;74.70;;;;;;5077451;28;20026;-60
2022/03/19 11:45:59;;;;;;;314.48;54.55;;;12.50;74.60;;;;;;5109152;27;20123;-60
2022/03/19 11:48:47;;;;;;;271.90;50.10;;;12.60;74.70;;;;;;5087594;28;20472;-60
2022/03/19 11:51:42;;;;;;;273.25;49.88;;;12.60;74.40;;;;;;5115306;27;20041;-60
2022/03/19 11:54:12;;;;;;;303.52;50.10;;;12.60;74.20;;;;;;5066907;28;20067;-61
2022/03/19 11:56:41;;;;;;;265.42;49.30;;;12.70;74.10;;;;;;5058408;28;20033;-60
2022/03/19 11:59:13;;;;;;;267.38;48.88;;;12.70;74.00;;;;;;5105143;28;20078;-62
2022/03/19 12:01:48;;;;;;;242.30;47.53;;;12.70;73.50;;;;;;5084291;28;20460;-63
2022/03/19 12:04:14;;;;;;;241.02;47.35;;;12.80;73.20;;;;;;5077011;28;20084;-60
2022/03/19 12:06:52;;;;;;;224.65;43.63;;;12.80;73.20;;;;;;5069398;28;20137;-60
2022/03/19 12:09:18;;;;;;;266.67;44.97;;;12.90;72.60;;;;;;5078206;28;20127;-60
2022/03/19 12:12:06;;;;;;;247.52;44.72;;;13.00;72.60;;;;;;5098557;28;20098;-60
2022/03/19 12:14:33;;;;;;;263.98;45.00;;;13.00;71.80;;;;;;5109492;28;20051;-60
2022/03/19 12:17:31;;;;;;;256.48;45.03;;;13.00;71.80;;;;;;5093987;28;20099;-60
2022/03/19 12:20:04;;;;;;;247.00;42.60;;;13.10;71.40;;;;;;5092743;28;20070;-60
2022/03/19 12:22:41;;;;;;;243.93;45.17;;;13.10;71.30;;;;;;5082596;28;20044;-60
2022/03/19 12:25:16;;;;;;;241.73;43.78;;;13.10;71.50;;;;;;5093633;28;20053;-60
2022/03/19 12:27:42;;;;;;;229.50;42.30;;;13.10;71.50;;;;;;5094379;28;20019;-60
2022/03/19 12:30:09;;;;;;;251.95;45.80;;;13.20;71.50;;;;;;5093696;28;20063;-60
2022/03/19 12:32:54;;;;;;;242.68;43.63;;;13.20;71.40;;;;;;5107799;28;20036;-60
2022/03/19 12:35:32;;;;;;;209.90;40.17;;;13.30;71.40;;;;;;5091281;28;20028;-60
2022/03/19 12:37:57;;;;;;;239.50;41.55;;;13.30;71.40;;;;;;5110881;28;20661;-60